sensor_id;sensor_type;location;lat;lon;timestamp;P1;durP1;ratioP1;P2;durP2;ratioP2
64367;SDS011;50692;53.314;-6.300;2023-06-22T00:00:18;3.95;;;2.47;;
64367;SDS011;50692;53.314;-6.300;2023-06-22T00:03:04;3.83;;;2.45;;
64367;SDS011;50692;53.314;-6.300;2023-06-22T00:05:50;3.75;;;2.40;;
64367;SDS011;50692;53.314;-6.300;2023-06-22T00:08:36;5.55;;;2.70;;
64367;SDS011;50692;53.314;-6.300;2023-06-22T00:11:22;2.95;;;2.28;;
64367;SDS011;50692;53.314;-6.300;2023-06-22T00:14:08;3.85;;;2.45;;
64367;SDS011;50692;53.314;-6.300;2023-06-22T00:16:54;5.22;;;2.40;;
64367;SDS011;50692;53.314;-6.300;2023-06-22T00:19:46;3.40;;;2.33;;
64367;SDS011;50692;53.314;-6.300;2023-06-22T00:22:32;4.18;;;2.42;;
64367;SDS011;50692;53.314;-6.300;2023-06-22T00:25:23;3.95;;;2.58;;
64367;SDS011;50692;53.314;-6.300;2023-06-22T00:28:09;3.50;;;2.40;;
64367;SDS011;50692;53.314;-6.300;2023-06-22T00:30:55;5.07;;;2.70;;
64367;SDS011;50692;53.314;-6.300;2023-06-22T00:33:41;3.90;;;2.63;;
64367;SDS011;50692;53.314;-6.300;2023-06-22T00:36:27;4.88;;;2.78;;
64367;SDS011;50692;53.314;-6.300;2023-06-22T00:39:13;3.05;;;2.38;;
64367;SDS011;50692;53.314;-6.300;2023-06-22T00:41:59;4.05;;;2.50;;
64367;SDS011;50692;53.314;-6.300;2023-06-22T00:44:45;2.80;;;2.03;;
64367;SDS011;50692;53.314;-6.300;2023-06-22T00:47:30;3.38;;;2.20;;
64367;SDS011;50692;53.314;-6.300;2023-06-22T00:50:18;4.72;;;2.17;;
64367;SDS011;50692;53.314;-6.300;2023-06-22T00:55:57;3.35;;;2.58;;
64367;SDS011;50692;53.314;-6.300;2023-06-22T00:58:45;3.90;;;2.40;;
64367;SDS011;50692;53.314;-6.300;2023-06-22T01:01:32;3.75;;;2.35;;
64367;SDS011;50692;53.314;-6.300;2023-06-22T01:04:19;3.78;;;2.60;;
64367;SDS011;50692;53.314;-6.300;2023-06-22T01:10:18;3.45;;;2.35;;
64367;SDS011;50692;53.314;-6.300;2023-06-22T01:13:56;3.22;;;2.50;;
64367;SDS011;50692;53.314;-6.300;2023-06-22T01:16:31;4.20;;;2.70;;
64367;SDS011;50692;53.314;-6.300;2023-06-22T01:22:24;3.58;;;2.85;;
64367;SDS011;50692;53.314;-6.300;2023-06-22T01:25:26;4.00;;;2.45;;
64367;SDS011;50692;53.314;-6.300;2023-06-22T01:28:40;3.17;;;2.45;;
64367;SDS011;50692;53.314;-6.300;2023-06-22T01:31:38;5.95;;;2.47;;
64367;SDS011;50692;53.314;-6.300;2023-06-22T01:34:26;4.82;;;2.40;;
64367;SDS011;50692;53.314;-6.300;2023-06-22T01:37:13;4.30;;;2.60;;
64367;SDS011;50692;53.314;-6.300;2023-06-22T01:40:00;3.00;;;2.60;;
64367;SDS011;50692;53.314;-6.300;2023-06-22T01:42:48;3.25;;;2.30;;
64367;SDS011;50692;53.314;-6.300;2023-06-22T01:45:35;3.70;;;2.55;;
64367;SDS011;50692;53.314;-6.300;2023-06-22T01:48:21;5.20;;;2.78;;
64367;SDS011;50692;53.314;-6.300;2023-06-22T01:51:07;3.30;;;2.90;;
64367;SDS011;50692;53.314;-6.300;2023-06-22T01:53:55;5.53;;;2.42;;
64367;SDS011;50692;53.314;-6.300;2023-06-22T01:56:41;3.72;;;2.83;;
64367;SDS011;50692;53.314;-6.300;2023-06-22T01:59:34;5.55;;;2.88;;
64367;SDS011;50692;53.314;-6.300;2023-06-22T02:02:27;3.80;;;2.80;;
64367;SDS011;50692;53.314;-6.300;2023-06-22T02:05:19;4.40;;;2.78;;
64367;SDS011;50692;53.314;-6.300;2023-06-22T02:08:09;3.92;;;2.55;;
64367;SDS011;50692;53.314;-6.300;2023-06-22T02:10:57;3.70;;;2.90;;
64367;SDS011;50692;53.314;-6.300;2023-06-22T02:13:45;4.45;;;2.95;;
64367;SDS011;50692;53.314;-6.300;2023-06-22T02:16:31;4.32;;;2.72;;
64367;SDS011;50692;53.314;-6.300;2023-06-22T02:19:22;5.10;;;2.97;;
64367;SDS011;50692;53.314;-6.300;2023-06-22T02:22:08;4.57;;;2.50;;
64367;SDS011;50692;53.314;-6.300;2023-06-22T02:24:54;3.95;;;2.75;;
64367;SDS011;50692;53.314;-6.300;2023-06-22T02:27:41;3.55;;;2.58;;
64367;SDS011;50692;53.314;-6.300;2023-06-22T02:30:28;4.70;;;2.78;;
64367;SDS011;50692;53.314;-6.300;2023-06-22T02:33:14;4.13;;;2.65;;
64367;SDS011;50692;53.314;-6.300;2023-06-22T02:36:00;5.63;;;2.95;;
64367;SDS011;50692;53.314;-6.300;2023-06-22T02:38:50;4.13;;;2.90;;
64367;SDS011;50692;53.314;-6.300;2023-06-22T02:41:36;4.40;;;2.83;;
64367;SDS011;50692;53.314;-6.300;2023-06-22T02:44:22;4.78;;;2.80;;
64367;SDS011;50692;53.314;-6.300;2023-06-22T02:47:07;5.32;;;3.03;;
64367;SDS011;50692;53.314;-6.300;2023-06-22T02:50:00;4.43;;;3.10;;
64367;SDS011;50692;53.314;-6.300;2023-06-22T02:52:46;4.88;;;2.80;;
64367;SDS011;50692;53.314;-6.300;2023-06-22T02:55:32;3.45;;;2.88;;
64367;SDS011;50692;53.314;-6.300;2023-06-22T02:58:18;5.10;;;3.28;;
64367;SDS011;50692;53.314;-6.300;2023-06-22T03:01:04;5.47;;;3.03;;
64367;SDS011;50692;53.314;-6.300;2023-06-22T03:03:51;3.90;;;2.70;;
64367;SDS011;50692;53.314;-6.300;2023-06-22T03:06:37;5.55;;;2.88;;
64367;SDS011;50692;53.314;-6.300;2023-06-22T03:09:26;4.72;;;3.13;;
64367;SDS011;50692;53.314;-6.300;2023-06-22T03:12:14;4.13;;;2.72;;
64367;SDS011;50692;53.314;-6.300;2023-06-22T03:15:01;5.90;;;3.15;;
64367;SDS011;50692;53.314;-6.300;2023-06-22T03:17:47;6.97;;;3.47;;
64367;SDS011;50692;53.314;-6.300;2023-06-22T03:20:33;4.07;;;3.08;;
64367;SDS011;50692;53.314;-6.300;2023-06-22T03:23:19;4.70;;;2.60;;
64367;SDS011;50692;53.314;-6.300;2023-06-22T03:26:05;3.85;;;2.97;;
64367;SDS011;50692;53.314;-6.300;2023-06-22T03:28:51;4.28;;;3.20;;
64367;SDS011;50692;53.314;-6.300;2023-06-22T03:31:37;5.03;;;3.40;;
64367;SDS011;50692;53.314;-6.300;2023-06-22T03:34:22;4.75;;;3.38;;
64367;SDS011;50692;53.314;-6.300;2023-06-22T03:37:08;5.50;;;3.58;;
64367;SDS011;50692;53.314;-6.300;2023-06-22T03:39:54;4.88;;;3.60;;
64367;SDS011;50692;53.314;-6.300;2023-06-22T03:42:40;4.65;;;3.83;;
64367;SDS011;50692;53.314;-6.300;2023-06-22T03:45:26;4.82;;;3.40;;
64367;SDS011;50692;53.314;-6.300;2023-06-22T03:48:12;6.03;;;3.42;;
64367;SDS011;50692;53.314;-6.300;2023-06-22T03:51:01;5.93;;;3.20;;
64367;SDS011;50692;53.314;-6.300;2023-06-22T03:53:48;6.18;;;3.40;;
64367;SDS011;50692;53.314;-6.300;2023-06-22T03:56:34;6.00;;;2.85;;
64367;SDS011;50692;53.314;-6.300;2023-06-22T03:59:20;5.60;;;3.33;;
64367;SDS011;50692;53.314;-6.300;2023-06-22T04:02:06;5.30;;;3.67;;
64367;SDS011;50692;53.314;-6.300;2023-06-22T04:04:52;5.53;;;3.40;;
64367;SDS011;50692;53.314;-6.300;2023-06-22T04:07:38;4.65;;;3.20;;
64367;SDS011;50692;53.314;-6.300;2023-06-22T04:10:25;6.60;;;3.65;;
64367;SDS011;50692;53.314;-6.300;2023-06-22T04:13:11;4.95;;;3.47;;
64367;SDS011;50692;53.314;-6.300;2023-06-22T04:15:57;5.43;;;3.60;;
64367;SDS011;50692;53.314;-6.300;2023-06-22T04:18:43;4.47;;;3.88;;
64367;SDS011;50692;53.314;-6.300;2023-06-22T04:21:29;5.47;;;3.67;;
64367;SDS011;50692;53.314;-6.300;2023-06-22T04:24:15;6.03;;;3.33;;
64367;SDS011;50692;53.314;-6.300;2023-06-22T04:27:01;5.25;;;3.50;;
64367;SDS011;50692;53.314;-6.300;2023-06-22T04:29:48;4.28;;;3.33;;
64367;SDS011;50692;53.314;-6.300;2023-06-22T04:32:34;5.10;;;3.60;;
64367;SDS011;50692;53.314;-6.300;2023-06-22T04:35:24;5.53;;;3.40;;
64367;SDS011;50692;53.314;-6.300;2023-06-22T04:38:11;5.40;;;3.67;;
64367;SDS011;50692;53.314;-6.300;2023-06-22T04:40:58;5.75;;;3.85;;
64367;SDS011;50692;53.314;-6.300;2023-06-22T04:43:47;6.20;;;3.35;;
64367;SDS011;50692;53.314;-6.300;2023-06-22T04:46:39;8.00;;;3.83;;
64367;SDS011;50692;53.314;-6.300;2023-06-22T04:49:26;5.32;;;3.60;;
64367;SDS011;50692;53.314;-6.300;2023-06-22T04:52:19;4.70;;;3.38;;
64367;SDS011;50692;53.314;-6.300;2023-06-22T04:55:05;6.43;;;3.80;;
64367;SDS011;50692;53.314;-6.300;2023-06-22T04:57:52;4.72;;;3.67;;
64367;SDS011;50692;53.314;-6.300;2023-06-22T05:00:38;5.00;;;3.38;;
64367;SDS011;50692;53.314;-6.300;2023-06-22T05:03:25;5.70;;;3.65;;
64367;SDS011;50692;53.314;-6.300;2023-06-22T05:06:11;4.38;;;3.40;;
64367;SDS011;50692;53.314;-6.300;2023-06-22T05:08:58;7.75;;;3.70;;
64367;SDS011;50692;53.314;-6.300;2023-06-22T05:11:44;4.93;;;3.35;;
64367;SDS011;50692;53.314;-6.300;2023-06-22T05:14:30;4.50;;;3.00;;
64367;SDS011;50692;53.314;-6.300;2023-06-22T05:17:16;6.10;;;3.40;;
64367;SDS011;50692;53.314;-6.300;2023-06-22T05:20:04;4.43;;;3.08;;
64367;SDS011;50692;53.314;-6.300;2023-06-22T05:22:51;4.38;;;3.10;;
64367;SDS011;50692;53.314;-6.300;2023-06-22T05:25:37;4.72;;;3.47;;
64367;SDS011;50692;53.314;-6.300;2023-06-22T05:28:23;4.10;;;3.20;;
64367;SDS011;50692;53.314;-6.300;2023-06-22T05:31:09;6.85;;;3.72;;
64367;SDS011;50692;53.314;-6.300;2023-06-22T05:33:55;5.38;;;3.30;;
64367;SDS011;50692;53.314;-6.300;2023-06-22T05:36:41;5.05;;;3.35;;
64367;SDS011;50692;53.314;-6.300;2023-06-22T05:39:29;6.43;;;3.72;;
64367;SDS011;50692;53.314;-6.300;2023-06-22T05:42:15;5.68;;;3.88;;
64367;SDS011;50692;53.314;-6.300;2023-06-22T05:45:00;7.68;;;4.70;;
64367;SDS011;50692;53.314;-6.300;2023-06-22T05:47:46;8.75;;;4.60;;
64367;SDS011;50692;53.314;-6.300;2023-06-22T05:50:33;6.57;;;4.60;;
64367;SDS011;50692;53.314;-6.300;2023-06-22T05:53:19;9.20;;;5.10;;
64367;SDS011;50692;53.314;-6.300;2023-06-22T05:56:05;8.20;;;5.25;;
64367;SDS011;50692;53.314;-6.300;2023-06-22T05:58:51;9.70;;;6.43;;
64367;SDS011;50692;53.314;-6.300;2023-06-22T06:01:36;10.25;;;7.10;;
64367;SDS011;50692;53.314;-6.300;2023-06-22T06:04:22;12.57;;;8.13;;
64367;SDS011;50692;53.314;-6.300;2023-06-22T06:07:08;10.75;;;7.10;;
64367;SDS011;50692;53.314;-6.300;2023-06-22T06:09:54;10.50;;;7.50;;
64367;SDS011;50692;53.314;-6.300;2023-06-22T06:12:40;11.35;;;7.63;;
64367;SDS011;50692;53.314;-6.300;2023-06-22T06:15:25;11.80;;;8.00;;
64367;SDS011;50692;53.314;-6.300;2023-06-22T06:18:11;12.70;;;8.05;;
64367;SDS011;50692;53.314;-6.300;2023-06-22T06:20:57;9.90;;;7.03;;
64367;SDS011;50692;53.314;-6.300;2023-06-22T06:23:43;11.27;;;7.90;;
64367;SDS011;50692;53.314;-6.300;2023-06-22T06:26:29;12.20;;;7.85;;
64367;SDS011;50692;53.314;-6.300;2023-06-22T06:29:17;12.38;;;7.85;;
64367;SDS011;50692;53.314;-6.300;2023-06-22T06:32:03;13.32;;;7.72;;
64367;SDS011;50692;53.314;-6.300;2023-06-22T06:34:49;10.95;;;7.57;;
64367;SDS011;50692;53.314;-6.300;2023-06-22T06:37:36;13.77;;;7.65;;
64367;SDS011;50692;53.314;-6.300;2023-06-22T06:40:23;9.27;;;6.63;;
64367;SDS011;50692;53.314;-6.300;2023-06-22T06:43:09;9.55;;;6.68;;
64367;SDS011;50692;53.314;-6.300;2023-06-22T06:45:55;8.98;;;5.90;;
64367;SDS011;50692;53.314;-6.300;2023-06-22T06:48:41;8.23;;;5.40;;
64367;SDS011;50692;53.314;-6.300;2023-06-22T06:51:27;7.00;;;5.70;;
64367;SDS011;50692;53.314;-6.300;2023-06-22T06:54:12;7.53;;;5.50;;
64367;SDS011;50692;53.314;-6.300;2023-06-22T06:56:58;9.35;;;5.50;;
64367;SDS011;50692;53.314;-6.300;2023-06-22T06:59:44;9.23;;;5.55;;
64367;SDS011;50692;53.314;-6.300;2023-06-22T07:02:30;7.30;;;5.50;;
64367;SDS011;50692;53.314;-6.300;2023-06-22T07:05:16;8.48;;;5.13;;
64367;SDS011;50692;53.314;-6.300;2023-06-22T07:08:02;7.20;;;4.82;;
64367;SDS011;50692;53.314;-6.300;2023-06-22T07:10:47;6.38;;;5.07;;
64367;SDS011;50692;53.314;-6.300;2023-06-22T07:13:33;6.70;;;4.93;;
64367;SDS011;50692;53.314;-6.300;2023-06-22T07:16:19;7.88;;;5.07;;
64367;SDS011;50692;53.314;-6.300;2023-06-22T07:19:05;6.68;;;4.80;;
64367;SDS011;50692;53.314;-6.300;2023-06-22T07:21:53;5.82;;;4.35;;
64367;SDS011;50692;53.314;-6.300;2023-06-22T07:24:40;9.15;;;4.65;;
64367;SDS011;50692;53.314;-6.300;2023-06-22T07:27:26;5.85;;;4.53;;
64367;SDS011;50692;53.314;-6.300;2023-06-22T07:30:12;4.90;;;3.83;;
64367;SDS011;50692;53.314;-6.300;2023-06-22T07:32:58;6.55;;;4.50;;
64367;SDS011;50692;53.314;-6.300;2023-06-22T07:35:50;8.07;;;4.90;;
64367;SDS011;50692;53.314;-6.300;2023-06-22T07:38:37;6.32;;;4.72;;
64367;SDS011;50692;53.314;-6.300;2023-06-22T07:41:23;8.82;;;4.82;;
64367;SDS011;50692;53.314;-6.300;2023-06-22T07:44:09;6.28;;;4.82;;
64367;SDS011;50692;53.314;-6.300;2023-06-22T07:46:55;7.00;;;4.57;;
64367;SDS011;50692;53.314;-6.300;2023-06-22T07:49:40;5.20;;;3.70;;
64367;SDS011;50692;53.314;-6.300;2023-06-22T07:52:27;5.75;;;3.92;;
64367;SDS011;50692;53.314;-6.300;2023-06-22T07:55:13;6.47;;;3.80;;
64367;SDS011;50692;53.314;-6.300;2023-06-22T07:57:59;6.38;;;3.95;;
64367;SDS011;50692;53.314;-6.300;2023-06-22T08:00:45;5.18;;;3.80;;
64367;SDS011;50692;53.314;-6.300;2023-06-22T08:03:31;8.88;;;3.45;;
64367;SDS011;50692;53.314;-6.300;2023-06-22T08:06:17;5.28;;;3.42;;
64367;SDS011;50692;53.314;-6.300;2023-06-22T08:09:03;5.70;;;3.63;;
64367;SDS011;50692;53.314;-6.300;2023-06-22T08:11:49;6.22;;;3.83;;
64367;SDS011;50692;53.314;-6.300;2023-06-22T08:14:35;5.25;;;3.03;;
64367;SDS011;50692;53.314;-6.300;2023-06-22T08:17:24;4.28;;;2.92;;
64367;SDS011;50692;53.314;-6.300;2023-06-22T08:20:10;5.05;;;3.35;;
64367;SDS011;50692;53.314;-6.300;2023-06-22T08:22:59;6.38;;;3.47;;
64367;SDS011;50692;53.314;-6.300;2023-06-22T08:25:51;4.35;;;3.22;;
64367;SDS011;50692;53.314;-6.300;2023-06-22T08:28:37;4.53;;;3.22;;
64367;SDS011;50692;53.314;-6.300;2023-06-22T08:31:23;3.88;;;2.97;;
64367;SDS011;50692;53.314;-6.300;2023-06-22T08:34:09;4.35;;;3.10;;
64367;SDS011;50692;53.314;-6.300;2023-06-22T08:36:54;6.47;;;3.50;;
64367;SDS011;50692;53.314;-6.300;2023-06-22T08:39:40;4.85;;;3.40;;
64367;SDS011;50692;53.314;-6.300;2023-06-22T08:42:27;4.85;;;3.20;;
64367;SDS011;50692;53.314;-6.300;2023-06-22T08:45:13;5.72;;;3.28;;
64367;SDS011;50692;53.314;-6.300;2023-06-22T08:47:59;4.97;;;3.10;;
64367;SDS011;50692;53.314;-6.300;2023-06-22T08:50:45;4.60;;;3.70;;
64367;SDS011;50692;53.314;-6.300;2023-06-22T08:53:31;5.60;;;2.90;;
64367;SDS011;50692;53.314;-6.300;2023-06-22T08:56:16;4.18;;;3.17;;
64367;SDS011;50692;53.314;-6.300;2023-06-22T08:59:03;4.05;;;2.75;;
64367;SDS011;50692;53.314;-6.300;2023-06-22T09:01:49;4.80;;;2.95;;
64367;SDS011;50692;53.314;-6.300;2023-06-22T09:04:35;4.68;;;2.75;;
64367;SDS011;50692;53.314;-6.300;2023-06-22T09:07:24;5.75;;;3.42;;
64367;SDS011;50692;53.314;-6.300;2023-06-22T09:10:11;4.53;;;3.15;;
64367;SDS011;50692;53.314;-6.300;2023-06-22T09:12:57;5.72;;;2.72;;
64367;SDS011;50692;53.314;-6.300;2023-06-22T09:15:43;4.65;;;2.97;;
64367;SDS011;50692;53.314;-6.300;2023-06-22T09:18:30;5.85;;;2.85;;
64367;SDS011;50692;53.314;-6.300;2023-06-22T09:21:16;4.03;;;2.95;;
64367;SDS011;50692;53.314;-6.300;2023-06-22T09:24:02;6.30;;;3.45;;
64367;SDS011;50692;53.314;-6.300;2023-06-22T09:26:48;3.75;;;2.78;;
64367;SDS011;50692;53.314;-6.300;2023-06-22T09:29:33;6.32;;;3.20;;
64367;SDS011;50692;53.314;-6.300;2023-06-22T09:32:19;4.28;;;2.70;;
64367;SDS011;50692;53.314;-6.300;2023-06-22T09:35:05;3.55;;;2.75;;
64367;SDS011;50692;53.314;-6.300;2023-06-22T09:37:52;4.68;;;3.25;;
64367;SDS011;50692;53.314;-6.300;2023-06-22T09:40:38;4.32;;;2.90;;
64367;SDS011;50692;53.314;-6.300;2023-06-22T09:43:25;4.32;;;3.00;;
64367;SDS011;50692;53.314;-6.300;2023-06-22T09:46:11;5.78;;;2.80;;
64367;SDS011;50692;53.314;-6.300;2023-06-22T09:48:57;4.20;;;2.88;;
64367;SDS011;50692;53.314;-6.300;2023-06-22T09:51:42;5.10;;;2.80;;
64367;SDS011;50692;53.314;-6.300;2023-06-22T09:54:28;4.65;;;2.88;;
64367;SDS011;50692;53.314;-6.300;2023-06-22T09:57:14;7.53;;;3.42;;
64367;SDS011;50692;53.314;-6.300;2023-06-22T10:00:00;3.90;;;2.85;;
64367;SDS011;50692;53.314;-6.300;2023-06-22T10:02:46;3.58;;;2.75;;
64367;SDS011;50692;53.314;-6.300;2023-06-22T10:05:31;4.63;;;3.10;;
64367;SDS011;50692;53.314;-6.300;2023-06-22T10:08:17;4.10;;;2.75;;
64367;SDS011;50692;53.314;-6.300;2023-06-22T10:11:03;5.93;;;3.33;;
64367;SDS011;50692;53.314;-6.300;2023-06-22T10:13:49;3.92;;;2.58;;
64367;SDS011;50692;53.314;-6.300;2023-06-22T10:16:36;3.72;;;2.90;;
64367;SDS011;50692;53.314;-6.300;2023-06-22T10:19:21;4.80;;;2.65;;
64367;SDS011;50692;53.314;-6.300;2023-06-22T10:22:07;4.50;;;2.85;;
64367;SDS011;50692;53.314;-6.300;2023-06-22T10:24:53;3.97;;;2.90;;
64367;SDS011;50692;53.314;-6.300;2023-06-22T10:27:39;5.93;;;3.13;;
64367;SDS011;50692;53.314;-6.300;2023-06-22T10:30:25;4.70;;;2.70;;
64367;SDS011;50692;53.314;-6.300;2023-06-22T10:33:11;4.00;;;2.72;;
64367;SDS011;50692;53.314;-6.300;2023-06-22T10:35:57;3.22;;;2.42;;
64367;SDS011;50692;53.314;-6.300;2023-06-22T10:38:43;3.83;;;2.80;;
64367;SDS011;50692;53.314;-6.300;2023-06-22T10:41:30;5.03;;;2.63;;
64367;SDS011;50692;53.314;-6.300;2023-06-22T10:44:18;4.28;;;2.65;;
64367;SDS011;50692;53.314;-6.300;2023-06-22T10:47:03;3.47;;;2.83;;
64367;SDS011;50692;53.314;-6.300;2023-06-22T10:49:49;3.70;;;2.85;;
64367;SDS011;50692;53.314;-6.300;2023-06-22T10:52:35;3.00;;;2.40;;
64367;SDS011;50692;53.314;-6.300;2023-06-22T10:55:21;4.85;;;2.75;;
64367;SDS011;50692;53.314;-6.300;2023-06-22T10:58:07;5.00;;;2.58;;
64367;SDS011;50692;53.314;-6.300;2023-06-22T11:00:53;4.28;;;2.70;;
64367;SDS011;50692;53.314;-6.300;2023-06-22T11:03:39;5.20;;;2.70;;
64367;SDS011;50692;53.314;-6.300;2023-06-22T11:06:25;3.38;;;2.47;;
64367;SDS011;50692;53.314;-6.300;2023-06-22T11:09:10;4.15;;;2.50;;
64367;SDS011;50692;53.314;-6.300;2023-06-22T11:11:56;5.43;;;2.80;;
64367;SDS011;50692;53.314;-6.300;2023-06-22T11:14:44;2.92;;;2.40;;
64367;SDS011;50692;53.314;-6.300;2023-06-22T11:17:30;5.60;;;2.70;;
64367;SDS011;50692;53.314;-6.300;2023-06-22T11:20:16;3.67;;;2.85;;
64367;SDS011;50692;53.314;-6.300;2023-06-22T11:23:01;3.65;;;2.70;;
64367;SDS011;50692;53.314;-6.300;2023-06-22T11:25:48;3.85;;;2.70;;
64367;SDS011;50692;53.314;-6.300;2023-06-22T11:28:33;4.13;;;2.55;;
64367;SDS011;50692;53.314;-6.300;2023-06-22T11:31:19;4.60;;;2.80;;
64367;SDS011;50692;53.314;-6.300;2023-06-22T11:34:05;3.50;;;2.75;;
64367;SDS011;50692;53.314;-6.300;2023-06-22T11:36:51;5.97;;;3.40;;
64367;SDS011;50692;53.314;-6.300;2023-06-22T11:39:37;4.60;;;2.85;;
64367;SDS011;50692;53.314;-6.300;2023-06-22T11:42:22;4.43;;;2.83;;
64367;SDS011;50692;53.314;-6.300;2023-06-22T11:45:09;5.20;;;2.65;;
64367;SDS011;50692;53.314;-6.300;2023-06-22T11:47:54;3.78;;;2.90;;
64367;SDS011;50692;53.314;-6.300;2023-06-22T11:50:40;3.75;;;2.83;;
64367;SDS011;50692;53.314;-6.300;2023-06-22T11:53:26;6.53;;;3.33;;
64367;SDS011;50692;53.314;-6.300;2023-06-22T11:56:12;3.45;;;2.80;;
64367;SDS011;50692;53.314;-6.300;2023-06-22T11:58:58;4.18;;;2.47;;
64367;SDS011;50692;53.314;-6.300;2023-06-22T12:01:44;4.10;;;3.30;;
64367;SDS011;50692;53.314;-6.300;2023-06-22T12:04:30;4.88;;;3.20;;
64367;SDS011;50692;53.314;-6.300;2023-06-22T12:07:15;3.97;;;2.90;;
64367;SDS011;50692;53.314;-6.300;2023-06-22T12:10:01;5.75;;;2.90;;
64367;SDS011;50692;53.314;-6.300;2023-06-22T12:12:47;3.33;;;2.67;;
64367;SDS011;50692;53.314;-6.300;2023-06-22T12:15:33;4.35;;;3.47;;
64367;SDS011;50692;53.314;-6.300;2023-06-22T12:18:19;3.97;;;3.00;;
64367;SDS011;50692;53.314;-6.300;2023-06-22T12:21:08;3.88;;;2.63;;
64367;SDS011;50692;53.314;-6.300;2023-06-22T12:23:53;5.72;;;3.20;;
64367;SDS011;50692;53.314;-6.300;2023-06-22T12:26:39;5.20;;;2.80;;
64367;SDS011;50692;53.314;-6.300;2023-06-22T12:29:25;3.67;;;2.67;;
64367;SDS011;50692;53.314;-6.300;2023-06-22T12:32:11;3.55;;;2.50;;
64367;SDS011;50692;53.314;-6.300;2023-06-22T12:35:00;3.50;;;3.10;;
64367;SDS011;50692;53.314;-6.300;2023-06-22T12:37:45;4.13;;;2.90;;
64367;SDS011;50692;53.314;-6.300;2023-06-22T12:40:31;3.80;;;2.92;;
64367;SDS011;50692;53.314;-6.300;2023-06-22T12:43:18;4.45;;;2.80;;
64367;SDS011;50692;53.314;-6.300;2023-06-22T12:46:04;5.60;;;3.30;;
64367;SDS011;50692;53.314;-6.300;2023-06-22T12:48:50;4.88;;;2.92;;
64367;SDS011;50692;53.314;-6.300;2023-06-22T12:51:39;4.05;;;2.60;;
64367;SDS011;50692;53.314;-6.300;2023-06-22T12:54:26;6.78;;;2.85;;
64367;SDS011;50692;53.314;-6.300;2023-06-22T12:57:13;3.42;;;2.60;;
64367;SDS011;50692;53.314;-6.300;2023-06-22T12:59:59;3.90;;;2.85;;
64367;SDS011;50692;53.314;-6.300;2023-06-22T13:02:46;4.88;;;2.92;;
64367;SDS011;50692;53.314;-6.300;2023-06-22T13:05:31;3.58;;;2.72;;
64367;SDS011;50692;53.314;-6.300;2023-06-22T13:08:20;3.20;;;2.58;;
64367;SDS011;50692;53.314;-6.300;2023-06-22T13:11:06;5.18;;;2.70;;
64367;SDS011;50692;53.314;-6.300;2023-06-22T13:13:52;3.15;;;2.50;;
64367;SDS011;50692;53.314;-6.300;2023-06-22T13:16:37;2.97;;;2.33;;
64367;SDS011;50692;53.314;-6.300;2023-06-22T13:19:23;4.38;;;2.40;;
64367;SDS011;50692;53.314;-6.300;2023-06-22T13:22:25;4.30;;;2.67;;
64367;SDS011;50692;53.314;-6.300;2023-06-22T13:25:18;2.97;;;2.42;;
64367;SDS011;50692;53.314;-6.300;2023-06-22T13:28:06;4.13;;;2.43;;
64367;SDS011;50692;53.314;-6.300;2023-06-22T13:30:52;3.30;;;2.30;;
64367;SDS011;50692;53.314;-6.300;2023-06-22T13:33:38;4.35;;;2.70;;
64367;SDS011;50692;53.314;-6.300;2023-06-22T13:36:25;2.58;;;2.28;;
64367;SDS011;50692;53.314;-6.300;2023-06-22T13:39:11;2.67;;;2.30;;
64367;SDS011;50692;53.314;-6.300;2023-06-22T13:41:57;4.18;;;2.38;;
64367;SDS011;50692;53.314;-6.300;2023-06-22T13:44:43;3.90;;;2.20;;
64367;SDS011;50692;53.314;-6.300;2023-06-22T13:47:29;3.00;;;2.13;;
64367;SDS011;50692;53.314;-6.300;2023-06-22T13:50:16;2.60;;;2.15;;
64367;SDS011;50692;53.314;-6.300;2023-06-22T13:53:01;3.17;;;2.13;;
64367;SDS011;50692;53.314;-6.300;2023-06-22T13:55:47;4.88;;;2.92;;
64367;SDS011;50692;53.314;-6.300;2023-06-22T13:58:33;3.58;;;2.35;;
64367;SDS011;50692;53.314;-6.300;2023-06-22T14:01:19;2.90;;;2.30;;
64367;SDS011;50692;53.314;-6.300;2023-06-22T14:04:05;2.67;;;2.00;;
64367;SDS011;50692;53.314;-6.300;2023-06-22T14:06:51;2.63;;;2.42;;
64367;SDS011;50692;53.314;-6.300;2023-06-22T14:09:37;3.30;;;2.28;;
64367;SDS011;50692;53.314;-6.300;2023-06-22T14:12:23;2.33;;;2.13;;
64367;SDS011;50692;53.314;-6.300;2023-06-22T14:15:10;3.17;;;2.40;;
64367;SDS011;50692;53.314;-6.300;2023-06-22T14:17:55;4.50;;;2.60;;
64367;SDS011;50692;53.314;-6.300;2023-06-22T14:20:41;2.67;;;2.08;;
64367;SDS011;50692;53.314;-6.300;2023-06-22T14:23:27;3.97;;;2.15;;
64367;SDS011;50692;53.314;-6.300;2023-06-22T14:26:13;3.25;;;2.00;;
64367;SDS011;50692;53.314;-6.300;2023-06-22T14:28:59;3.28;;;2.33;;
64367;SDS011;50692;53.314;-6.300;2023-06-22T14:31:45;2.50;;;2.10;;
64367;SDS011;50692;53.314;-6.300;2023-06-22T14:34:32;2.88;;;2.05;;
64367;SDS011;50692;53.314;-6.300;2023-06-22T14:37:21;3.03;;;1.88;;
64367;SDS011;50692;53.314;-6.300;2023-06-22T14:40:07;2.17;;;1.88;;
64367;SDS011;50692;53.314;-6.300;2023-06-22T14:42:53;2.55;;;1.77;;
64367;SDS011;50692;53.314;-6.300;2023-06-22T14:45:39;2.67;;;2.00;;
64367;SDS011;50692;53.314;-6.300;2023-06-22T14:48:26;2.42;;;1.83;;
64367;SDS011;50692;53.314;-6.300;2023-06-22T14:51:12;2.38;;;1.58;;
64367;SDS011;50692;53.314;-6.300;2023-06-22T14:53:58;3.03;;;1.98;;
64367;SDS011;50692;53.314;-6.300;2023-06-22T14:56:44;2.30;;;1.70;;
64367;SDS011;50692;53.314;-6.300;2023-06-22T14:59:30;2.97;;;1.67;;
64367;SDS011;50692;53.314;-6.300;2023-06-22T15:02:16;2.15;;;1.52;;
64367;SDS011;50692;53.314;-6.300;2023-06-22T15:05:02;1.80;;;1.63;;
64367;SDS011;50692;53.314;-6.300;2023-06-22T15:07:48;2.42;;;1.50;;
64367;SDS011;50692;53.314;-6.300;2023-06-22T15:10:34;2.30;;;1.40;;
64367;SDS011;50692;53.314;-6.300;2023-06-22T15:13:20;2.72;;;1.80;;
64367;SDS011;50692;53.314;-6.300;2023-06-22T15:16:07;2.25;;;2.00;;
64367;SDS011;50692;53.314;-6.300;2023-06-22T15:18:53;2.70;;;2.03;;
64367;SDS011;50692;53.314;-6.300;2023-06-22T15:21:39;4.00;;;2.38;;
64367;SDS011;50692;53.314;-6.300;2023-06-22T15:24:25;5.05;;;3.30;;
64367;SDS011;50692;53.314;-6.300;2023-06-22T15:27:11;3.40;;;2.20;;
64367;SDS011;50692;53.314;-6.300;2023-06-22T15:29:58;1.52;;;1.42;;
64367;SDS011;50692;53.314;-6.300;2023-06-22T15:32:44;2.10;;;1.90;;
64367;SDS011;50692;53.314;-6.300;2023-06-22T15:35:30;1.92;;;1.70;;
64367;SDS011;50692;53.314;-6.300;2023-06-22T15:38:16;2.03;;;1.70;;
64367;SDS011;50692;53.314;-6.300;2023-06-22T15:41:02;2.00;;;1.80;;
64367;SDS011;50692;53.314;-6.300;2023-06-22T15:43:48;2.47;;;1.80;;
64367;SDS011;50692;53.314;-6.300;2023-06-22T15:46:34;2.28;;;1.70;;
64367;SDS011;50692;53.314;-6.300;2023-06-22T15:49:20;3.22;;;1.65;;
64367;SDS011;50692;53.314;-6.300;2023-06-22T15:52:07;3.28;;;1.80;;
64367;SDS011;50692;53.314;-6.300;2023-06-22T15:54:53;2.92;;;1.83;;
64367;SDS011;50692;53.314;-6.300;2023-06-22T15:57:43;3.47;;;1.90;;
64367;SDS011;50692;53.314;-6.300;2023-06-22T16:00:31;2.55;;;1.90;;
64367;SDS011;50692;53.314;-6.300;2023-06-22T16:03:17;3.58;;;2.35;;
64367;SDS011;50692;53.314;-6.300;2023-06-22T16:06:03;2.72;;;1.80;;
64367;SDS011;50692;53.314;-6.300;2023-06-22T16:08:49;3.50;;;2.13;;
64367;SDS011;50692;53.314;-6.300;2023-06-22T16:11:36;2.45;;;1.90;;
64367;SDS011;50692;53.314;-6.300;2023-06-22T16:14:22;2.88;;;2.15;;
64367;SDS011;50692;53.314;-6.300;2023-06-22T16:17:08;2.92;;;2.00;;
64367;SDS011;50692;53.314;-6.300;2023-06-22T16:19:54;3.67;;;2.05;;
64367;SDS011;50692;53.314;-6.300;2023-06-22T16:22:40;2.45;;;2.00;;
64367;SDS011;50692;53.314;-6.300;2023-06-22T16:25:26;3.92;;;1.80;;
64367;SDS011;50692;53.314;-6.300;2023-06-22T16:28:12;3.60;;;2.10;;
64367;SDS011;50692;53.314;-6.300;2023-06-22T16:30:58;3.10;;;2.00;;
64367;SDS011;50692;53.314;-6.300;2023-06-22T16:33:44;3.97;;;1.85;;
64367;SDS011;50692;53.314;-6.300;2023-06-22T16:39:18;2.92;;;1.77;;